Halifax, NC

1:52 PM EDT en Agosto 24, 2016 (GMT -0400)
Roanoke Rapids | | Change Station

Alt 144 ft 36.33 °N, 77.64 °W | Updated 12 minutes ago

Clear
Despejado
82 ° F
Sensación térmica 83 ° F
N
5
Viento Variable Viento desde ENE

Hoy
Alta -- | Baja -- ° F
--% Posibilidad de precipitaciones
Ayer
Alta -- | Baja -- ° F
Precip. -- pul
Presión 30.28 pul
Visibilidad 10.0 Millas
Nubes Despejado
Índice de calor 83 ° F
Punto de rocío 63 ° F
Humedad 51%
Precipitaciones 0.00 pul
Espesor de la nieve No disponible.
6:36 AM 7:48 PM
Gibosa menguante, 55% visible
METAR KIXA 241740Z AUTO 07004KT 10SM CLR 28/17 A3028 RMK AO2
Presión 30.28 pul
Visibilidad 10.0 Millas
Nubes Despejado
Índice de calor 83 ° F
Punto de rocío 63 ° F
Humedad 51%
Precipitaciones 0.00 pul
Espesor de la nieve No disponible.
6:36 AM 7:48 PM
Gibosa menguante, 55% visible
METAR KIXA 241740Z AUTO 07004KT 10SM CLR 28/17 A3028 RMK AO2
A tropical disturbance we've monitored since last week, may have a dangerous future in store for the southeast U.S. and Gulf coasts this weekend into next week. The National Weather Service has issued a flash flood watch for Puerto Rico and the U.S. Virgin Islands. Rainfall totals of 2-4 inches (locally higher) are expected through Wednesday night in those areas.

The National Hurricane Center says this system has a medium to high chance of development into a tropical depression or tropical storm over the next 2 to 5 days. A tight consensus of our guidance suggests the disturbance should continue in a general west or west-northwest trajectory the next several days.

10-Day Weather Forecast

Almanac

Astronomía

Aug. 24, 2016 Salida Puesta
Hora real
Crepúsculo civil
Crepúsculo náutico
Crepúsculo astronómico
Luna
Horas de luz
Horas de luz
Tomorrow will be .
, % of the Moon is Illuminated

Extremos de hoy

Máximos del estado Bajos del estado

Community

WunderPhotos

Upload Photos

1,934,661 ¡fotos cargadas!

WunderBlog® & News

Nearby

Calidad del aire

  Calidad del aire Índice AQ Contaminante
Not available.

Grosos de nieve

Estación Profundido Altura

Actividad de terremotos

Ciudad Distance Mag. Tiempo y dato
Magnitud mínima muestra es 2,5.

Temperaturas de aguas costeras

Lugar Temperatura

Stations

Estaciones meteorológicas cercanas

Ubicación de la estación Temp. Vientos helados Punto de rocío Humedad Viento Precip. Alt Actualizado Tipo
                   

Watches & Warnings

There are currently no watches in effect.